sensor_id;sensor_type;location;lat;lon;timestamp;pressure;altitude;pressure_sealevel;temperature;humidity
63194;BME280;49289;51.670;5.624;2023-03-18T00:00:31;100910.94;;;19.83;45.04
63194;BME280;49289;51.670;5.624;2023-03-18T00:02:19;100922.62;;;20.09;44.70
63194;BME280;49289;51.670;5.624;2023-03-18T00:04:07;100918.84;;;19.83;45.30
63194;BME280;49289;51.670;5.624;2023-03-18T00:06:00;100894.97;;;19.38;45.99
63194;BME280;49289;51.670;5.624;2023-03-18T00:07:43;100914.53;;;19.47;46.19
63194;BME280;49289;51.670;5.624;2023-03-18T00:09:31;100908.69;;;19.83;45.42
63194;BME280;49289;51.670;5.624;2023-03-18T00:11:18;100914.36;;;19.47;46.07
63194;BME280;49289;51.670;5.624;2023-03-18T00:13:05;100911.65;;;19.82;45.78
63194;BME280;49289;51.670;5.624;2023-03-18T00:14:54;100902.38;;;19.48;45.98
63194;BME280;49289;51.670;5.624;2023-03-18T00:16:41;100899.82;;;19.42;46.48
63194;BME280;49289;51.670;5.624;2023-03-18T00:18:30;100896.06;;;19.77;45.64
63194;BME280;49289;51.670;5.624;2023-03-18T00:20:18;100877.66;;;19.78;45.33
63194;BME280;49289;51.670;5.624;2023-03-18T00:22:05;100879.07;;;19.95;45.16
63194;BME280;49289;51.670;5.624;2023-03-18T00:23:52;100883.78;;;20.03;44.93
63194;BME280;49289;51.670;5.624;2023-03-18T00:25:39;100904.38;;;20.08;44.84
63194;BME280;49289;51.670;5.624;2023-03-18T00:27:26;100903.02;;;20.23;44.70
63194;BME280;49289;51.670;5.624;2023-03-18T00:29:13;100904.61;;;20.29;44.72
63194;BME280;49289;51.670;5.624;2023-03-18T00:31:00;100890.89;;;20.19;44.68
63194;BME280;49289;51.670;5.624;2023-03-18T00:32:47;100884.63;;;20.10;44.92
63194;BME280;49289;51.670;5.624;2023-03-18T00:34:34;100890.39;;;20.16;44.70
63194;BME280;49289;51.670;5.624;2023-03-18T00:36:21;100890.22;;;20.18;44.95
63194;BME280;49289;51.670;5.624;2023-03-18T00:38:08;100892.13;;;20.13;44.94
63194;BME280;49289;51.670;5.624;2023-03-18T00:39:55;100899.62;;;20.05;44.96
63194;BME280;49289;51.670;5.624;2023-03-18T00:41:42;100918.89;;;20.17;45.05
63194;BME280;49289;51.670;5.624;2023-03-18T00:43:29;100895.88;;;19.88;45.21
63194;BME280;49289;51.670;5.624;2023-03-18T00:45:16;100923.48;;;20.02;45.23
63194;BME280;49289;51.670;5.624;2023-03-18T00:47:06;100922.52;;;20.05;45.35
63194;BME280;49289;51.670;5.624;2023-03-18T00:48:55;100917.36;;;20.03;45.25
63194;BME280;49289;51.670;5.624;2023-03-18T00:50:43;100931.95;;;19.93;45.71
63194;BME280;49289;51.670;5.624;2023-03-18T00:52:30;100926.98;;;20.01;45.69
63194;BME280;49289;51.670;5.624;2023-03-18T00:54:19;100925.30;;;19.98;45.72
63194;BME280;49289;51.670;5.624;2023-03-18T00:56:07;100909.28;;;19.85;45.64
63194;BME280;49289;51.670;5.624;2023-03-18T00:57:55;100905.55;;;19.92;45.72
63194;BME280;49289;51.670;5.624;2023-03-18T00:59:46;100922.38;;;19.95;45.71
63194;BME280;49289;51.670;5.624;2023-03-18T01:01:34;100919.28;;;20.06;45.54
63194;BME280;49289;51.670;5.624;2023-03-18T01:03:22;100922.15;;;20.01;45.65
63194;BME280;49289;51.670;5.624;2023-03-18T01:05:10;100927.53;;;20.11;45.55
63194;BME280;49289;51.670;5.624;2023-03-18T01:06:57;100929.40;;;20.01;45.90
63194;BME280;49289;51.670;5.624;2023-03-18T01:08:44;100914.55;;;19.96;45.66
63194;BME280;49289;51.670;5.624;2023-03-18T01:10:31;100917.73;;;20.01;45.44
63194;BME280;49289;51.670;5.624;2023-03-18T01:12:19;100917.31;;;19.98;45.77
63194;BME280;49289;51.670;5.624;2023-03-18T01:14:06;100933.43;;;20.02;45.95
63194;BME280;49289;51.670;5.624;2023-03-18T01:15:53;100929.02;;;20.05;45.83
63194;BME280;49289;51.670;5.624;2023-03-18T01:17:40;100932.48;;;20.01;45.95
63194;BME280;49289;51.670;5.624;2023-03-18T01:19:27;100934.70;;;20.08;45.99
63194;BME280;49289;51.670;5.624;2023-03-18T01:21:14;100935.97;;;19.98;46.16
63194;BME280;49289;51.670;5.624;2023-03-18T01:23:01;100934.36;;;19.89;46.65
63194;BME280;49289;51.670;5.624;2023-03-18T01:24:48;100933.94;;;19.89;46.71
63194;BME280;49289;51.670;5.624;2023-03-18T01:26:35;100938.77;;;19.90;46.68
63194;BME280;49289;51.670;5.624;2023-03-18T01:28:22;100916.62;;;19.76;46.87
63194;BME280;49289;51.670;5.624;2023-03-18T01:30:10;100920.25;;;19.65;47.03
63194;BME280;49289;51.670;5.624;2023-03-18T01:31:58;100919.45;;;19.75;46.79
63194;BME280;49289;51.670;5.624;2023-03-18T01:33:45;100911.45;;;19.71;46.86
63194;BME280;49289;51.670;5.624;2023-03-18T01:35:32;100908.67;;;19.66;46.83
63194;BME280;49289;51.670;5.624;2023-03-18T01:37:19;100909.29;;;19.60;47.22
63194;BME280;49289;51.670;5.624;2023-03-18T01:39:06;100910.75;;;19.64;47.01
63194;BME280;49289;51.670;5.624;2023-03-18T01:40:53;100908.20;;;19.60;47.13
63194;BME280;49289;51.670;5.624;2023-03-18T01:42:40;100928.11;;;19.73;47.17
63194;BME280;49289;51.670;5.624;2023-03-18T01:44:27;100911.52;;;19.55;47.17
63194;BME280;49289;51.670;5.624;2023-03-18T01:46:38;100917.19;;;19.59;47.40
63194;BME280;49289;51.670;5.624;2023-03-18T01:48:27;100931.41;;;19.65;47.40
63194;BME280;49289;51.670;5.624;2023-03-18T01:50:15;100930.52;;;19.38;48.15
63194;BME280;49289;51.670;5.624;2023-03-18T01:52:02;100914.44;;;19.13;48.86
63194;BME280;49289;51.670;5.624;2023-03-18T01:53:48;100932.28;;;19.19;49.40
63194;BME280;49289;51.670;5.624;2023-03-18T01:55:36;100929.46;;;19.29;49.83
63194;BME280;49289;51.670;5.624;2023-03-18T01:57:22;100908.59;;;19.02;50.49
63194;BME280;49289;51.670;5.624;2023-03-18T01:59:10;100904.17;;;19.22;50.25
63194;BME280;49289;51.670;5.624;2023-03-18T02:00:59;100923.44;;;19.40;50.22
63194;BME280;49289;51.670;5.624;2023-03-18T02:02:47;100931.13;;;18.82;52.41
63194;BME280;49289;51.670;5.624;2023-03-18T02:04:38;100909.62;;;18.75;53.09
63194;BME280;49289;51.670;5.624;2023-03-18T02:06:24;100925.63;;;18.98;52.85
63194;BME280;49289;51.670;5.624;2023-03-18T02:08:11;100931.71;;;18.36;55.26
63194;BME280;49289;51.670;5.624;2023-03-18T02:09:59;100918.28;;;18.30;55.66
63194;BME280;49289;51.670;5.624;2023-03-18T02:11:47;100921.44;;;17.97;57.00
63194;BME280;49289;51.670;5.624;2023-03-18T02:13:34;100919.48;;;18.34;56.02
63194;BME280;49289;51.670;5.624;2023-03-18T02:15:22;100923.62;;;18.32;56.18
63194;BME280;49289;51.670;5.624;2023-03-18T02:17:11;100934.86;;;18.07;57.49
63194;BME280;49289;51.670;5.624;2023-03-18T02:18:59;100920.54;;;18.32;56.61
63194;BME280;49289;51.670;5.624;2023-03-18T02:21:09;100920.09;;;18.02;57.67
63194;BME280;49289;51.670;5.624;2023-03-18T02:22:53;100917.39;;;18.20;57.42
63194;BME280;49289;51.670;5.624;2023-03-18T02:24:43;100928.40;;;18.29;57.54
63194;BME280;49289;51.670;5.624;2023-03-18T02:26:44;100926.78;;;17.92;59.43
63194;BME280;49289;51.670;5.624;2023-03-18T02:28:18;100919.39;;;17.41;60.86
63194;BME280;49289;51.670;5.624;2023-03-18T02:30:05;100929.55;;;17.65;61.31
63194;BME280;49289;51.670;5.624;2023-03-18T02:31:51;100922.92;;;17.96;60.29
63194;BME280;49289;51.670;5.624;2023-03-18T02:33:40;100923.66;;;17.76;60.49
63194;BME280;49289;51.670;5.624;2023-03-18T02:35:28;100936.88;;;18.09;60.49
63194;BME280;49289;51.670;5.624;2023-03-18T02:37:16;100927.30;;;18.14;59.79
63194;BME280;49289;51.670;5.624;2023-03-18T02:39:04;100948.81;;;18.26;59.83
63194;BME280;49289;51.670;5.624;2023-03-18T02:40:52;100935.00;;;17.73;61.31
63194;BME280;49289;51.670;5.624;2023-03-18T02:42:39;100954.42;;;18.18;60.32
63194;BME280;49289;51.670;5.624;2023-03-18T02:44:27;100944.23;;;18.25;60.06
63194;BME280;49289;51.670;5.624;2023-03-18T02:46:25;100941.55;;;18.31;59.91
63194;BME280;49289;51.670;5.624;2023-03-18T02:48:10;100947.28;;;18.23;60.41
63194;BME280;49289;51.670;5.624;2023-03-18T02:49:57;100945.48;;;17.93;61.27
63194;BME280;49289;51.670;5.624;2023-03-18T02:51:46;100950.81;;;18.27;60.45
63194;BME280;49289;51.670;5.624;2023-03-18T02:53:33;100947.94;;;18.10;60.63
63194;BME280;49289;51.670;5.624;2023-03-18T02:55:22;100954.02;;;18.19;60.62
63194;BME280;49289;51.670;5.624;2023-03-18T02:57:10;100969.25;;;18.35;60.54
63194;BME280;49289;51.670;5.624;2023-03-18T02:58:58;100957.25;;;18.11;60.89
63194;BME280;49289;51.670;5.624;2023-03-18T03:00:46;100962.19;;;18.07;61.29
63194;BME280;49289;51.670;5.624;2023-03-18T03:02:34;100961.42;;;17.94;61.75
63194;BME280;49289;51.670;5.624;2023-03-18T03:04:23;100961.22;;;18.09;61.66
63194;BME280;49289;51.670;5.624;2023-03-18T03:06:10;100979.36;;;18.32;61.18
63194;BME280;49289;51.670;5.624;2023-03-18T03:07:57;100960.78;;;18.27;61.05
63194;BME280;49289;51.670;5.624;2023-03-18T03:09:44;100965.70;;;17.90;61.96
63194;BME280;49289;51.670;5.624;2023-03-18T03:11:31;100974.94;;;18.18;61.63
63194;BME280;49289;51.670;5.624;2023-03-18T03:13:19;100975.27;;;18.39;61.13
63194;BME280;49289;51.670;5.624;2023-03-18T03:15:07;100982.83;;;18.43;60.82
63194;BME280;49289;51.670;5.624;2023-03-18T03:16:55;100988.50;;;18.40;60.93
63194;BME280;49289;51.670;5.624;2023-03-18T03:18:43;100969.63;;;18.39;60.91
63194;BME280;49289;51.670;5.624;2023-03-18T03:20:31;100993.05;;;18.44;60.85
63194;BME280;49289;51.670;5.624;2023-03-18T03:22:19;100976.43;;;18.10;61.50
63194;BME280;49289;51.670;5.624;2023-03-18T03:24:06;100980.80;;;17.79;62.86
63194;BME280;49289;51.670;5.624;2023-03-18T03:25:54;101001.69;;;18.18;62.03
63194;BME280;49289;51.670;5.624;2023-03-18T03:27:41;100983.14;;;18.16;61.79
63194;BME280;49289;51.670;5.624;2023-03-18T03:29:28;100981.34;;;18.12;61.90
63194;BME280;49289;51.670;5.624;2023-03-18T03:31:15;100996.75;;;17.80;63.31
63194;BME280;49289;51.670;5.624;2023-03-18T03:33:03;101002.99;;;17.98;62.62
63194;BME280;49289;51.670;5.624;2023-03-18T03:34:50;100985.25;;;17.44;64.30
63194;BME280;49289;51.670;5.624;2023-03-18T03:36:38;101005.84;;;18.05;62.65
63194;BME280;49289;51.670;5.624;2023-03-18T03:38:26;100986.35;;;18.14;61.95
63194;BME280;49289;51.670;5.624;2023-03-18T03:40:16;100990.72;;;18.11;62.10
63194;BME280;49289;51.670;5.624;2023-03-18T03:42:02;100993.42;;;17.53;63.81
63194;BME280;49289;51.670;5.624;2023-03-18T03:43:49;100992.92;;;17.83;62.97
63194;BME280;49289;51.670;5.624;2023-03-18T03:45:36;101007.02;;;17.88;63.01
63194;BME280;49289;51.670;5.624;2023-03-18T03:47:24;100995.37;;;17.93;63.09
63194;BME280;49289;51.670;5.624;2023-03-18T03:49:12;101011.66;;;18.18;62.68
63194;BME280;49289;51.670;5.624;2023-03-18T03:51:01;100992.44;;;18.08;62.65
63194;BME280;49289;51.670;5.624;2023-03-18T03:52:49;101011.08;;;18.23;62.41
63194;BME280;49289;51.670;5.624;2023-03-18T03:54:37;100995.30;;;18.23;62.03
63194;BME280;49289;51.670;5.624;2023-03-18T03:56:25;100994.55;;;18.31;61.86
63194;BME280;49289;51.670;5.624;2023-03-18T03:58:13;100997.16;;;17.83;62.93
63194;BME280;49289;51.670;5.624;2023-03-18T04:00:02;100996.30;;;18.12;62.56
63194;BME280;49289;51.670;5.624;2023-03-18T04:01:50;101007.64;;;18.16;62.72
63194;BME280;49289;51.670;5.624;2023-03-18T04:03:38;100993.86;;;18.10;62.60
63194;BME280;49289;51.670;5.624;2023-03-18T04:05:26;100992.89;;;18.01;62.78
63194;BME280;49289;51.670;5.624;2023-03-18T04:07:14;100996.89;;;18.06;62.85
63194;BME280;49289;51.670;5.624;2023-03-18T04:09:02;100996.03;;;18.22;62.32
63194;BME280;49289;51.670;5.624;2023-03-18T04:10:50;100993.63;;;18.04;62.77
63194;BME280;49289;51.670;5.624;2023-03-18T04:12:38;101002.31;;;17.90;63.28
63194;BME280;49289;51.670;5.624;2023-03-18T04:14:26;101003.78;;;18.01;62.87
63194;BME280;49289;51.670;5.624;2023-03-18T04:16:14;101019.86;;;18.09;62.88
63194;BME280;49289;51.670;5.624;2023-03-18T04:18:02;101003.43;;;18.04;62.86
63194;BME280;49289;51.670;5.624;2023-03-18T04:19:50;101003.83;;;18.17;62.42
63194;BME280;49289;51.670;5.624;2023-03-18T04:21:38;101012.67;;;18.32;62.20
63194;BME280;49289;51.670;5.624;2023-03-18T04:23:26;100996.50;;;18.15;62.29
63194;BME280;49289;51.670;5.624;2023-03-18T04:25:14;101015.80;;;18.22;62.42
63194;BME280;49289;51.670;5.624;2023-03-18T04:27:02;101020.13;;;18.30;62.11
63194;BME280;49289;51.670;5.624;2023-03-18T04:28:51;101022.70;;;18.43;61.85
63194;BME280;49289;51.670;5.624;2023-03-18T04:30:39;101006.39;;;18.34;61.72
63194;BME280;49289;51.670;5.624;2023-03-18T04:32:27;101007.80;;;18.35;61.58
63194;BME280;49289;51.670;5.624;2023-03-18T04:34:15;101007.36;;;18.26;61.78
63194;BME280;49289;51.670;5.624;2023-03-18T04:36:03;101017.87;;;18.36;61.72
63194;BME280;49289;51.670;5.624;2023-03-18T04:37:51;101005.66;;;18.36;61.53
63194;BME280;49289;51.670;5.624;2023-03-18T04:39:39;101007.07;;;18.36;61.47
63194;BME280;49289;51.670;5.624;2023-03-18T04:41:27;101008.70;;;18.33;61.61
63194;BME280;49289;51.670;5.624;2023-03-18T04:43:15;101020.16;;;18.46;61.35
63194;BME280;49289;51.670;5.624;2023-03-18T04:45:03;101004.32;;;18.36;61.39
63194;BME280;49289;51.670;5.624;2023-03-18T04:46:53;101020.23;;;18.53;61.19
63194;BME280;49289;51.670;5.624;2023-03-18T04:48:41;101017.46;;;18.57;61.02
63194;BME280;49289;51.670;5.624;2023-03-18T04:50:29;101015.09;;;18.53;61.20
63194;BME280;49289;51.670;5.624;2023-03-18T04:52:17;101003.03;;;18.45;61.11
63194;BME280;49289;51.670;5.624;2023-03-18T04:54:04;101018.66;;;18.45;61.26
63194;BME280;49289;51.670;5.624;2023-03-18T04:55:51;101018.93;;;18.47;61.27
63194;BME280;49289;51.670;5.624;2023-03-18T04:57:38;101021.58;;;18.41;61.50
63194;BME280;49289;51.670;5.624;2023-03-18T04:59:25;101002.15;;;18.15;61.88
63194;BME280;49289;51.670;5.624;2023-03-18T05:01:14;101028.29;;;18.32;61.68
63194;BME280;49289;51.670;5.624;2023-03-18T05:03:01;101012.17;;;18.31;61.49
63194;BME280;49289;51.670;5.624;2023-03-18T05:04:49;101029.03;;;18.43;61.45
63194;BME280;49289;51.670;5.624;2023-03-18T05:06:37;101018.16;;;18.33;61.32
63194;BME280;49289;51.670;5.624;2023-03-18T05:08:25;101016.42;;;18.45;61.04
63194;BME280;49289;51.670;5.624;2023-03-18T05:10:13;101035.52;;;18.52;61.00
63194;BME280;49289;51.670;5.624;2023-03-18T05:12:00;101023.44;;;18.03;61.88
63194;BME280;49289;51.670;5.624;2023-03-18T05:13:47;101032.05;;;18.26;61.52
63194;BME280;49289;51.670;5.624;2023-03-18T05:15:35;101027.39;;;18.26;61.55
63194;BME280;49289;51.670;5.624;2023-03-18T05:17:23;101042.03;;;18.35;61.49
63194;BME280;49289;51.670;5.624;2023-03-18T05:19:11;101033.92;;;18.37;61.22
63194;BME280;49289;51.670;5.624;2023-03-18T05:20:59;101047.81;;;18.39;61.29
63194;BME280;49289;51.670;5.624;2023-03-18T05:22:47;101046.38;;;18.36;61.45
63194;BME280;49289;51.670;5.624;2023-03-18T05:24:35;101046.67;;;18.41;61.27
63194;BME280;49289;51.670;5.624;2023-03-18T05:26:23;101051.82;;;18.45;61.27
63194;BME280;49289;51.670;5.624;2023-03-18T05:28:11;101053.98;;;18.34;61.36
63194;BME280;49289;51.670;5.624;2023-03-18T05:30:00;101039.00;;;17.89;62.87
63194;BME280;49289;51.670;5.624;2023-03-18T05:31:47;101034.73;;;17.94;62.44
63194;BME280;49289;51.670;5.624;2023-03-18T05:33:35;101036.83;;;18.19;62.13
63194;BME280;49289;51.670;5.624;2023-03-18T05:35:24;101049.78;;;18.30;61.92
63194;BME280;49289;51.670;5.624;2023-03-18T05:37:12;101038.23;;;18.18;61.87
63194;BME280;49289;51.670;5.624;2023-03-18T05:39:00;101039.37;;;17.99;62.46
63194;BME280;49289;51.670;5.624;2023-03-18T05:40:48;101043.06;;;18.31;61.74
63194;BME280;49289;51.670;5.624;2023-03-18T05:42:36;101042.81;;;18.23;61.72
63194;BME280;49289;51.670;5.624;2023-03-18T05:44:23;101046.20;;;18.36;61.49
63194;BME280;49289;51.670;5.624;2023-03-18T05:46:10;101042.98;;;18.31;61.26
63194;BME280;49289;51.670;5.624;2023-03-18T05:47:57;101040.53;;;18.27;61.58
63194;BME280;49289;51.670;5.624;2023-03-18T05:49:44;101033.63;;;18.27;61.69
63194;BME280;49289;51.670;5.624;2023-03-18T05:51:31;101049.98;;;18.39;61.37
63194;BME280;49289;51.670;5.624;2023-03-18T05:53:18;101049.59;;;18.28;61.34
63194;BME280;49289;51.670;5.624;2023-03-18T05:55:05;101036.25;;;18.23;61.17
63194;BME280;49289;51.670;5.624;2023-03-18T05:56:52;101050.38;;;18.24;61.42
63194;BME280;49289;51.670;5.624;2023-03-18T05:58:39;101033.75;;;18.01;61.61
63194;BME280;49289;51.670;5.624;2023-03-18T06:00:27;101042.56;;;17.79;62.10
63194;BME280;49289;51.670;5.624;2023-03-18T06:02:15;101045.58;;;17.98;61.63
63194;BME280;49289;51.670;5.624;2023-03-18T06:04:03;101064.47;;;18.18;61.51
63194;BME280;49289;51.670;5.624;2023-03-18T06:05:51;101055.53;;;18.14;61.33
63194;BME280;49289;51.670;5.624;2023-03-18T06:07:38;101069.48;;;18.23;61.16
63194;BME280;49289;51.670;5.624;2023-03-18T06:09:25;101049.38;;;18.13;61.24
63194;BME280;49289;51.670;5.624;2023-03-18T06:11:12;101070.35;;;18.27;61.36
63194;BME280;49289;51.670;5.624;2023-03-18T06:12:59;101061.38;;;18.27;61.20
63194;BME280;49289;51.670;5.624;2023-03-18T06:14:46;101078.39;;;18.43;61.14
63194;BME280;49289;51.670;5.624;2023-03-18T06:16:33;101084.01;;;18.48;61.07
63194;BME280;49289;51.670;5.624;2023-03-18T06:18:20;101086.88;;;18.27;61.43
63194;BME280;49289;51.670;5.624;2023-03-18T06:20:08;101089.53;;;18.39;61.37
63194;BME280;49289;51.670;5.624;2023-03-18T06:21:54;101075.77;;;18.29;61.16
63194;BME280;49289;51.670;5.624;2023-03-18T06:23:41;101078.34;;;18.18;61.48
63194;BME280;49289;51.670;5.624;2023-03-18T06:25:29;101078.93;;;18.12;61.89
63194;BME280;49289;51.670;5.624;2023-03-18T06:27:16;101075.66;;;18.27;61.24
63194;BME280;49289;51.670;5.624;2023-03-18T06:29:03;101072.85;;;18.17;61.32
63194;BME280;49289;51.670;5.624;2023-03-18T06:30:53;101089.39;;;18.11;61.67
63194;BME280;49289;51.670;5.624;2023-03-18T06:32:37;101076.98;;;18.09;61.29
63194;BME280;49289;51.670;5.624;2023-03-18T06:34:24;101074.06;;;18.08;61.29
63194;BME280;49289;51.670;5.624;2023-03-18T06:36:12;101073.19;;;18.17;61.18
63194;BME280;49289;51.670;5.624;2023-03-18T06:38:00;101074.37;;;18.19;60.70
63194;BME280;49289;51.670;5.624;2023-03-18T06:39:48;101070.20;;;18.04;61.32
63194;BME280;49289;51.670;5.624;2023-03-18T06:41:36;101066.47;;;18.12;61.12
63194;BME280;49289;51.670;5.624;2023-03-18T06:43:23;101087.85;;;18.25;61.19
63194;BME280;49289;51.670;5.624;2023-03-18T06:45:12;101070.28;;;17.88;61.98
63194;BME280;49289;51.670;5.624;2023-03-18T06:47:00;101087.20;;;18.09;61.83
63194;BME280;49289;51.670;5.624;2023-03-18T06:48:48;101085.17;;;18.06;61.76
63194;BME280;49289;51.670;5.624;2023-03-18T06:50:36;101054.48;;;17.86;61.58
63194;BME280;49289;51.670;5.624;2023-03-18T06:52:23;101081.19;;;18.13;61.75
63194;BME280;49289;51.670;5.624;2023-03-18T06:54:10;101074.55;;;18.24;61.26
63194;BME280;49289;51.670;5.624;2023-03-18T06:55:57;101076.67;;;17.61;62.60
63194;BME280;49289;51.670;5.624;2023-03-18T06:57:44;101080.59;;;17.80;62.63
63194;BME280;49289;51.670;5.624;2023-03-18T06:59:31;101086.09;;;17.91;62.17
63194;BME280;49289;51.670;5.624;2023-03-18T07:01:18;101087.05;;;18.16;61.69
63194;BME280;49289;51.670;5.624;2023-03-18T07:03:05;101083.94;;;17.97;62.19
63194;BME280;49289;51.670;5.624;2023-03-18T07:04:52;101089.98;;;18.19;61.63
63194;BME280;49289;51.670;5.624;2023-03-18T07:06:39;101108.69;;;18.36;61.19
63194;BME280;49289;51.670;5.624;2023-03-18T07:08:26;101105.79;;;18.08;61.97
63194;BME280;49289;51.670;5.624;2023-03-18T07:10:15;101095.21;;;18.12;61.68
63194;BME280;49289;51.670;5.624;2023-03-18T07:12:01;101096.94;;;18.00;61.71
63194;BME280;49289;51.670;5.624;2023-03-18T07:13:48;101104.92;;;17.66;62.84
63194;BME280;49289;51.670;5.624;2023-03-18T07:15:35;101103.34;;;17.89;62.51
63194;BME280;49289;51.670;5.624;2023-03-18T07:17:22;101124.66;;;17.07;64.46
63194;BME280;49289;51.670;5.624;2023-03-18T07:19:09;101110.86;;;17.27;64.17
63194;BME280;49289;51.670;5.624;2023-03-18T07:20:56;101115.68;;;17.55;63.56
63194;BME280;49289;51.670;5.624;2023-03-18T07:22:43;101118.54;;;17.00;64.74
63194;BME280;49289;51.670;5.624;2023-03-18T07:24:30;101112.78;;;17.10;64.95
63194;BME280;49289;51.670;5.624;2023-03-18T07:26:17;101116.67;;;16.73;65.57
63194;BME280;49289;51.670;5.624;2023-03-18T07:28:04;101133.99;;;16.69;66.69
63194;BME280;49289;51.670;5.624;2023-03-18T07:29:51;101129.29;;;17.37;64.72
63194;BME280;49289;51.670;5.624;2023-03-18T07:31:38;101135.98;;;17.76;63.27
63194;BME280;49289;51.670;5.624;2023-03-18T07:33:25;101137.08;;;17.41;63.79
63194;BME280;49289;51.670;5.624;2023-03-18T07:35:13;101138.87;;;17.34;64.11
63194;BME280;49289;51.670;5.624;2023-03-18T07:37:01;101123.05;;;17.63;63.49
63194;BME280;49289;51.670;5.624;2023-03-18T07:38:49;101133.55;;;17.65;62.85
63194;BME280;49289;51.670;5.624;2023-03-18T07:40:37;101123.00;;;17.15;64.64
63194;BME280;49289;51.670;5.624;2023-03-18T07:42:25;101128.06;;;16.99;65.13
63194;BME280;49289;51.670;5.624;2023-03-18T07:44:13;101124.89;;;17.10;65.26
63194;BME280;49289;51.670;5.624;2023-03-18T07:46:01;101141.72;;;17.45;64.29
63194;BME280;49289;51.670;5.624;2023-03-18T07:47:49;101130.20;;;17.45;63.60
63194;BME280;49289;51.670;5.624;2023-03-18T07:49:37;101132.28;;;17.61;64.06
63194;BME280;49289;51.670;5.624;2023-03-18T07:51:25;101141.58;;;18.13;62.73
63194;BME280;49289;51.670;5.624;2023-03-18T07:53:13;101152.39;;;18.20;61.84
63194;BME280;49289;51.670;5.624;2023-03-18T07:55:01;101155.55;;;18.37;61.83
63194;BME280;49289;51.670;5.624;2023-03-18T07:56:49;101143.59;;;18.09;62.27
63194;BME280;49289;51.670;5.624;2023-03-18T07:58:37;101162.73;;;17.61;63.05
63194;BME280;49289;51.670;5.624;2023-03-18T08:00:26;101111.45;;;18.00;62.00
63194;BME280;49289;51.670;5.624;2023-03-18T08:02:15;101167.16;;;18.07;61.80
63194;BME280;49289;51.670;5.624;2023-03-18T08:04:02;101150.36;;;18.40;61.18
63194;BME280;49289;51.670;5.624;2023-03-18T08:05:49;101149.14;;;18.14;61.54
63194;BME280;49289;51.670;5.624;2023-03-18T08:07:36;101146.42;;;18.25;60.80
63194;BME280;49289;51.670;5.624;2023-03-18T08:09:23;101159.68;;;17.92;61.77
63194;BME280;49289;51.670;5.624;2023-03-18T08:11:10;101173.59;;;17.85;62.73
63194;BME280;49289;51.670;5.624;2023-03-18T08:12:57;101159.61;;;17.82;61.93
63194;BME280;49289;51.670;5.624;2023-03-18T08:14:44;101167.31;;;17.61;62.34
63194;BME280;49289;51.670;5.624;2023-03-18T08:16:31;101162.16;;;17.73;62.26
63194;BME280;49289;51.670;5.624;2023-03-18T08:18:18;101150.45;;;17.86;62.11
63194;BME280;49289;51.670;5.624;2023-03-18T08:20:05;101150.22;;;18.13;61.73
63194;BME280;49289;51.670;5.624;2023-03-18T08:21:52;101164.22;;;18.39;60.70
63194;BME280;49289;51.670;5.624;2023-03-18T08:23:39;101149.95;;;18.28;60.74
63194;BME280;49289;51.670;5.624;2023-03-18T08:25:26;101146.95;;;18.12;60.43
63194;BME280;49289;51.670;5.624;2023-03-18T08:27:13;101142.37;;;18.17;60.93
63194;BME280;49289;51.670;5.624;2023-03-18T08:29:01;101157.13;;;18.88;59.67
63194;BME280;49289;51.670;5.624;2023-03-18T08:30:51;101157.02;;;18.29;59.73
63194;BME280;49289;51.670;5.624;2023-03-18T08:32:38;101152.18;;;18.17;60.79
63194;BME280;49289;51.670;5.624;2023-03-18T08:34:25;101145.67;;;18.89;59.42
63194;BME280;49289;51.670;5.624;2023-03-18T08:36:12;101160.00;;;18.50;58.86
63194;BME280;49289;51.670;5.624;2023-03-18T08:37:59;101159.02;;;18.13;59.64
63194;BME280;49289;51.670;5.624;2023-03-18T08:39:46;101144.03;;;18.17;60.14
63194;BME280;49289;51.670;5.624;2023-03-18T08:41:33;101143.16;;;18.20;60.04
63194;BME280;49289;51.670;5.624;2023-03-18T08:43:20;101149.84;;;18.38;60.32
63194;BME280;49289;51.670;5.624;2023-03-18T08:45:07;101141.48;;;18.06;60.29
63194;BME280;49289;51.670;5.624;2023-03-18T08:46:54;101148.87;;;18.28;59.23
63194;BME280;49289;51.670;5.624;2023-03-18T08:48:41;101149.97;;;18.23;59.77
63194;BME280;49289;51.670;5.624;2023-03-18T08:50:28;101149.88;;;18.07;59.48
63194;BME280;49289;51.670;5.624;2023-03-18T08:52:15;101148.61;;;18.27;58.60
63194;BME280;49289;51.670;5.624;2023-03-18T08:54:03;101148.81;;;18.60;58.49
63194;BME280;49289;51.670;5.624;2023-03-18T08:55:51;101155.24;;;18.32;58.38
63194;BME280;49289;51.670;5.624;2023-03-18T08:57:39;101156.49;;;18.71;57.32
63194;BME280;49289;51.670;5.624;2023-03-18T08:59:27;101172.22;;;18.99;56.90
63194;BME280;49289;51.670;5.624;2023-03-18T09:01:15;101167.67;;;19.14;55.74
63194;BME280;49289;51.670;5.624;2023-03-18T09:03:04;101157.58;;;18.98;56.60
63194;BME280;49289;51.670;5.624;2023-03-18T09:04:52;101169.88;;;18.78;56.58
63194;BME280;49289;51.670;5.624;2023-03-18T09:06:40;101155.80;;;19.40;54.86
63194;BME280;49289;51.670;5.624;2023-03-18T09:08:27;101155.87;;;19.78;54.55
63194;BME280;49289;51.670;5.624;2023-03-18T09:10:14;101168.64;;;19.71;54.07
63194;BME280;49289;51.670;5.624;2023-03-18T09:12:02;101176.06;;;19.56;55.12
63194;BME280;49289;51.670;5.624;2023-03-18T09:13:50;101171.38;;;19.10;55.78
63194;BME280;49289;51.670;5.624;2023-03-18T09:15:39;101170.72;;;19.54;55.08
63194;BME280;49289;51.670;5.624;2023-03-18T09:17:26;101170.58;;;20.12;54.21
63194;BME280;49289;51.670;5.624;2023-03-18T09:19:14;101170.61;;;20.45;53.85
63194;BME280;49289;51.670;5.624;2023-03-18T09:21:02;101177.45;;;20.19;53.44
63194;BME280;49289;51.670;5.624;2023-03-18T09:22:51;101185.47;;;19.71;53.96